sensor_id;sensor_type;location;lat;lon;timestamp;P1;durP1;ratioP1;P2;durP2;ratioP2
6757;SDS011;3416;53.074;8.822;2023-05-21T00:02:07;5.60;;;4.18;;
6757;SDS011;3416;53.074;8.822;2023-05-21T00:04:37;7.65;;;4.85;;
6757;SDS011;3416;53.074;8.822;2023-05-21T00:07:04;8.45;;;4.50;;
6757;SDS011;3416;53.074;8.822;2023-05-21T00:09:34;7.45;;;4.18;;
6757;SDS011;3416;53.074;8.822;2023-05-21T00:12:03;9.55;;;5.15;;
6757;SDS011;3416;53.074;8.822;2023-05-21T00:14:31;8.13;;;4.35;;
6757;SDS011;3416;53.074;8.822;2023-05-21T00:16:57;7.53;;;4.00;;
6757;SDS011;3416;53.074;8.822;2023-05-21T00:19:24;7.00;;;4.43;;
6757;SDS011;3416;53.074;8.822;2023-05-21T00:21:52;6.45;;;4.43;;
6757;SDS011;3416;53.074;8.822;2023-05-21T00:24:20;5.88;;;4.13;;
6757;SDS011;3416;53.074;8.822;2023-05-21T00:26:48;6.40;;;4.45;;
6757;SDS011;3416;53.074;8.822;2023-05-21T00:29:15;8.13;;;4.05;;
6757;SDS011;3416;53.074;8.822;2023-05-21T00:31:42;8.73;;;4.60;;
6757;SDS011;3416;53.074;8.822;2023-05-21T00:34:09;5.32;;;4.18;;
6757;SDS011;3416;53.074;8.822;2023-05-21T00:36:36;6.20;;;4.78;;
6757;SDS011;3416;53.074;8.822;2023-05-21T00:39:05;9.98;;;4.00;;
6757;SDS011;3416;53.074;8.822;2023-05-21T00:41:33;10.63;;;4.63;;
6757;SDS011;3416;53.074;8.822;2023-05-21T00:44:01;7.05;;;4.18;;
6757;SDS011;3416;53.074;8.822;2023-05-21T00:46:28;7.38;;;4.10;;
6757;SDS011;3416;53.074;8.822;2023-05-21T00:48:55;7.22;;;4.22;;
6757;SDS011;3416;53.074;8.822;2023-05-21T00:51:23;7.15;;;4.15;;
6757;SDS011;3416;53.074;8.822;2023-05-21T00:53:54;6.72;;;4.47;;
6757;SDS011;3416;53.074;8.822;2023-05-21T00:56:22;6.35;;;4.50;;
6757;SDS011;3416;53.074;8.822;2023-05-21T00:58:51;11.70;;;5.15;;
6757;SDS011;3416;53.074;8.822;2023-05-21T01:01:20;16.35;;;4.78;;
6757;SDS011;3416;53.074;8.822;2023-05-21T01:03:49;8.05;;;4.63;;
6757;SDS011;3416;53.074;8.822;2023-05-21T01:06:18;7.88;;;4.20;;
6757;SDS011;3416;53.074;8.822;2023-05-21T01:08:45;7.40;;;4.20;;
6757;SDS011;3416;53.074;8.822;2023-05-21T01:11:14;7.38;;;5.35;;
6757;SDS011;3416;53.074;8.822;2023-05-21T01:13:43;9.20;;;4.40;;
6757;SDS011;3416;53.074;8.822;2023-05-21T01:16:12;8.65;;;4.28;;
6757;SDS011;3416;53.074;8.822;2023-05-21T01:18:43;12.38;;;4.50;;
6757;SDS011;3416;53.074;8.822;2023-05-21T01:21:10;7.20;;;4.43;;
6757;SDS011;3416;53.074;8.822;2023-05-21T01:23:42;13.25;;;5.07;;
6757;SDS011;3416;53.074;8.822;2023-05-21T01:26:10;9.77;;;5.05;;
6757;SDS011;3416;53.074;8.822;2023-05-21T01:28:37;8.50;;;4.90;;
6757;SDS011;3416;53.074;8.822;2023-05-21T01:31:08;7.15;;;4.65;;
6757;SDS011;3416;53.074;8.822;2023-05-21T01:33:51;6.60;;;5.22;;
6757;SDS011;3416;53.074;8.822;2023-05-21T01:36:22;5.00;;;3.80;;
6757;SDS011;3416;53.074;8.822;2023-05-21T01:39:01;7.38;;;4.30;;
6757;SDS011;3416;53.074;8.822;2023-05-21T01:41:36;8.63;;;4.70;;
6757;SDS011;3416;53.074;8.822;2023-05-21T01:44:07;9.82;;;5.45;;
6757;SDS011;3416;53.074;8.822;2023-05-21T01:46:36;9.43;;;5.78;;
6757;SDS011;3416;53.074;8.822;2023-05-21T01:49:04;6.50;;;4.80;;
6757;SDS011;3416;53.074;8.822;2023-05-21T01:51:33;7.70;;;5.18;;
6757;SDS011;3416;53.074;8.822;2023-05-21T01:54:02;10.80;;;4.80;;
6757;SDS011;3416;53.074;8.822;2023-05-21T01:56:29;7.60;;;4.60;;
6757;SDS011;3416;53.074;8.822;2023-05-21T01:58:58;8.98;;;4.10;;
6757;SDS011;3416;53.074;8.822;2023-05-21T02:01:25;10.52;;;5.60;;
6757;SDS011;3416;53.074;8.822;2023-05-21T02:03:54;7.03;;;4.47;;
6757;SDS011;3416;53.074;8.822;2023-05-21T02:06:21;9.10;;;3.83;;
6757;SDS011;3416;53.074;8.822;2023-05-21T02:08:48;6.18;;;4.63;;
6757;SDS011;3416;53.074;8.822;2023-05-21T02:11:17;8.40;;;5.03;;
6757;SDS011;3416;53.074;8.822;2023-05-21T02:13:44;6.22;;;4.15;;
6757;SDS011;3416;53.074;8.822;2023-05-21T02:16:11;10.15;;;5.10;;
6757;SDS011;3416;53.074;8.822;2023-05-21T02:18:44;9.95;;;5.53;;
6757;SDS011;3416;53.074;8.822;2023-05-21T02:21:12;5.90;;;4.32;;
6757;SDS011;3416;53.074;8.822;2023-05-21T02:23:39;10.43;;;4.95;;
6757;SDS011;3416;53.074;8.822;2023-05-21T02:26:06;4.72;;;4.20;;
6757;SDS011;3416;53.074;8.822;2023-05-21T02:28:37;6.90;;;4.70;;
6757;SDS011;3416;53.074;8.822;2023-05-21T02:31:04;8.15;;;4.40;;
6757;SDS011;3416;53.074;8.822;2023-05-21T02:33:31;6.15;;;4.13;;
6757;SDS011;3416;53.074;8.822;2023-05-21T02:35:58;10.40;;;4.82;;
6757;SDS011;3416;53.074;8.822;2023-05-21T02:41:37;5.22;;;3.97;;
6757;SDS011;3416;53.074;8.822;2023-05-21T02:44:06;8.10;;;4.38;;
6757;SDS011;3416;53.074;8.822;2023-05-21T02:46:35;11.27;;;4.30;;
6757;SDS011;3416;53.074;8.822;2023-05-21T02:49:01;7.20;;;4.45;;
6757;SDS011;3416;53.074;8.822;2023-05-21T02:51:28;6.78;;;4.63;;
6757;SDS011;3416;53.074;8.822;2023-05-21T02:53:55;9.07;;;5.72;;
6757;SDS011;3416;53.074;8.822;2023-05-21T02:56:23;12.02;;;5.65;;
6757;SDS011;3416;53.074;8.822;2023-05-21T02:58:51;11.35;;;4.90;;
6757;SDS011;3416;53.074;8.822;2023-05-21T03:01:20;8.70;;;5.15;;
6757;SDS011;3416;53.074;8.822;2023-05-21T03:03:46;7.85;;;4.97;;
6757;SDS011;3416;53.074;8.822;2023-05-21T03:06:16;6.60;;;5.18;;
6757;SDS011;3416;53.074;8.822;2023-05-21T03:08:43;9.85;;;4.60;;
6757;SDS011;3416;53.074;8.822;2023-05-21T03:11:11;12.52;;;7.72;;
6757;SDS011;3416;53.074;8.822;2023-05-21T03:13:38;12.38;;;5.47;;
6757;SDS011;3416;53.074;8.822;2023-05-21T03:16:06;6.40;;;4.70;;
6757;SDS011;3416;53.074;8.822;2023-05-21T03:18:35;6.60;;;5.20;;
6757;SDS011;3416;53.074;8.822;2023-05-21T03:21:02;7.60;;;4.43;;
6757;SDS011;3416;53.074;8.822;2023-05-21T03:23:29;8.32;;;4.97;;
6757;SDS011;3416;53.074;8.822;2023-05-21T03:25:57;8.88;;;4.45;;
6757;SDS011;3416;53.074;8.822;2023-05-21T03:28:24;12.35;;;5.80;;
6757;SDS011;3416;53.074;8.822;2023-05-21T03:30:50;7.60;;;5.10;;
6757;SDS011;3416;53.074;8.822;2023-05-21T03:33:18;6.90;;;4.95;;
6757;SDS011;3416;53.074;8.822;2023-05-21T03:35:47;9.98;;;4.93;;
6757;SDS011;3416;53.074;8.822;2023-05-21T03:38:14;9.45;;;5.47;;
6757;SDS011;3416;53.074;8.822;2023-05-21T03:40:41;7.65;;;5.30;;
6757;SDS011;3416;53.074;8.822;2023-05-21T03:43:08;7.35;;;5.00;;
6757;SDS011;3416;53.074;8.822;2023-05-21T03:45:35;6.70;;;5.03;;
6757;SDS011;3416;53.074;8.822;2023-05-21T03:48:02;11.80;;;5.10;;
6757;SDS011;3416;53.074;8.822;2023-05-21T03:50:29;8.68;;;5.55;;
6757;SDS011;3416;53.074;8.822;2023-05-21T03:52:57;11.82;;;5.32;;
6757;SDS011;3416;53.074;8.822;2023-05-21T03:55:25;7.93;;;4.85;;
6757;SDS011;3416;53.074;8.822;2023-05-21T03:57:53;9.68;;;5.75;;
6757;SDS011;3416;53.074;8.822;2023-05-21T04:00:20;7.82;;;4.68;;
6757;SDS011;3416;53.074;8.822;2023-05-21T04:02:48;7.82;;;4.50;;
6757;SDS011;3416;53.074;8.822;2023-05-21T04:05:15;8.65;;;5.13;;
6757;SDS011;3416;53.074;8.822;2023-05-21T04:07:42;4.35;;;3.15;;
6757;SDS011;3416;53.074;8.822;2023-05-21T04:10:11;10.25;;;5.00;;
6757;SDS011;3416;53.074;8.822;2023-05-21T04:12:38;7.68;;;4.70;;
6757;SDS011;3416;53.074;8.822;2023-05-21T04:15:06;6.95;;;5.60;;
6757;SDS011;3416;53.074;8.822;2023-05-21T04:17:33;8.82;;;5.00;;
6757;SDS011;3416;53.074;8.822;2023-05-21T04:20:00;9.65;;;5.00;;
6757;SDS011;3416;53.074;8.822;2023-05-21T04:22:28;5.15;;;4.63;;
6757;SDS011;3416;53.074;8.822;2023-05-21T04:24:54;8.95;;;5.30;;
6757;SDS011;3416;53.074;8.822;2023-05-21T04:27:25;9.32;;;4.85;;
6757;SDS011;3416;53.074;8.822;2023-05-21T04:29:51;8.23;;;5.80;;
6757;SDS011;3416;53.074;8.822;2023-05-21T04:32:22;7.75;;;4.95;;
6757;SDS011;3416;53.074;8.822;2023-05-21T04:34:49;9.18;;;4.78;;
6757;SDS011;3416;53.074;8.822;2023-05-21T04:37:16;8.00;;;5.03;;
6757;SDS011;3416;53.074;8.822;2023-05-21T04:39:43;6.70;;;4.18;;
6757;SDS011;3416;53.074;8.822;2023-05-21T04:42:10;5.03;;;4.38;;
6757;SDS011;3416;53.074;8.822;2023-05-21T04:44:39;7.30;;;4.70;;
6757;SDS011;3416;53.074;8.822;2023-05-21T04:47:08;9.77;;;4.70;;
6757;SDS011;3416;53.074;8.822;2023-05-21T04:49:36;6.53;;;4.82;;
6757;SDS011;3416;53.074;8.822;2023-05-21T04:52:03;7.82;;;4.97;;
6757;SDS011;3416;53.074;8.822;2023-05-21T04:54:30;7.25;;;4.22;;
6757;SDS011;3416;53.074;8.822;2023-05-21T04:56:57;4.90;;;4.40;;
6757;SDS011;3416;53.074;8.822;2023-05-21T04:59:24;6.18;;;3.40;;
6757;SDS011;3416;53.074;8.822;2023-05-21T05:01:52;6.45;;;4.60;;
6757;SDS011;3416;53.074;8.822;2023-05-21T05:04:19;7.05;;;4.18;;
6757;SDS011;3416;53.074;8.822;2023-05-21T05:06:46;11.90;;;5.18;;
6757;SDS011;3416;53.074;8.822;2023-05-21T05:09:14;6.32;;;4.68;;
6757;SDS011;3416;53.074;8.822;2023-05-21T05:11:42;7.82;;;5.20;;
6757;SDS011;3416;53.074;8.822;2023-05-21T05:14:09;6.22;;;3.60;;
6757;SDS011;3416;53.074;8.822;2023-05-21T05:16:36;8.75;;;5.30;;
6757;SDS011;3416;53.074;8.822;2023-05-21T05:19:04;9.68;;;4.43;;
6757;SDS011;3416;53.074;8.822;2023-05-21T05:21:31;9.68;;;4.88;;
6757;SDS011;3416;53.074;8.822;2023-05-21T05:23:58;7.53;;;5.28;;
6757;SDS011;3416;53.074;8.822;2023-05-21T05:26:26;6.55;;;5.00;;
6757;SDS011;3416;53.074;8.822;2023-05-21T05:28:53;9.27;;;4.73;;
6757;SDS011;3416;53.074;8.822;2023-05-21T05:31:20;7.23;;;4.70;;
6757;SDS011;3416;53.074;8.822;2023-05-21T05:33:47;6.63;;;4.53;;
6757;SDS011;3416;53.074;8.822;2023-05-21T05:36:16;8.53;;;4.17;;
6757;SDS011;3416;53.074;8.822;2023-05-21T05:38:42;5.07;;;4.25;;
6757;SDS011;3416;53.074;8.822;2023-05-21T05:41:09;9.00;;;4.20;;
6757;SDS011;3416;53.074;8.822;2023-05-21T05:43:36;5.20;;;3.97;;
6757;SDS011;3416;53.074;8.822;2023-05-21T05:46:03;8.10;;;4.50;;
6757;SDS011;3416;53.074;8.822;2023-05-21T05:48:30;7.25;;;3.95;;
6757;SDS011;3416;53.074;8.822;2023-05-21T05:50:57;6.38;;;4.90;;
6757;SDS011;3416;53.074;8.822;2023-05-21T05:53:26;7.55;;;4.95;;
6757;SDS011;3416;53.074;8.822;2023-05-21T05:55:53;8.75;;;5.20;;
6757;SDS011;3416;53.074;8.822;2023-05-21T05:58:20;5.60;;;4.53;;
6757;SDS011;3416;53.074;8.822;2023-05-21T06:00:47;5.45;;;4.45;;
6757;SDS011;3416;53.074;8.822;2023-05-21T06:03:14;6.60;;;5.10;;
6757;SDS011;3416;53.074;8.822;2023-05-21T06:05:42;10.80;;;5.43;;
6757;SDS011;3416;53.074;8.822;2023-05-21T06:08:09;6.60;;;4.37;;
6757;SDS011;3416;53.074;8.822;2023-05-21T06:10:37;8.07;;;4.40;;
6757;SDS011;3416;53.074;8.822;2023-05-21T06:13:04;6.43;;;4.73;;
6757;SDS011;3416;53.074;8.822;2023-05-21T06:15:31;7.53;;;5.73;;
6757;SDS011;3416;53.074;8.822;2023-05-21T06:17:58;9.63;;;4.83;;
6757;SDS011;3416;53.074;8.822;2023-05-21T06:20:25;16.90;;;5.47;;
6757;SDS011;3416;53.074;8.822;2023-05-21T06:22:53;6.53;;;5.20;;
6757;SDS011;3416;53.074;8.822;2023-05-21T06:25:20;6.03;;;4.57;;
6757;SDS011;3416;53.074;8.822;2023-05-21T06:27:51;8.03;;;5.43;;
6757;SDS011;3416;53.074;8.822;2023-05-21T06:30:19;8.00;;;5.47;;
6757;SDS011;3416;53.074;8.822;2023-05-21T06:32:46;9.03;;;5.33;;
6757;SDS011;3416;53.074;8.822;2023-05-21T06:35:12;8.00;;;4.70;;
6757;SDS011;3416;53.074;8.822;2023-05-21T06:37:39;8.20;;;5.73;;
6757;SDS011;3416;53.074;8.822;2023-05-21T06:40:08;6.37;;;4.63;;
6757;SDS011;3416;53.074;8.822;2023-05-21T06:42:35;9.63;;;5.97;;
6757;SDS011;3416;53.074;8.822;2023-05-21T06:45:04;9.60;;;5.80;;
6757;SDS011;3416;53.074;8.822;2023-05-21T06:47:31;9.07;;;5.97;;
6757;SDS011;3416;53.074;8.822;2023-05-21T06:49:58;8.30;;;5.67;;
6757;SDS011;3416;53.074;8.822;2023-05-21T06:52:25;8.53;;;6.20;;
6757;SDS011;3416;53.074;8.822;2023-05-21T06:54:52;11.80;;;5.90;;
6757;SDS011;3416;53.074;8.822;2023-05-21T06:57:19;5.70;;;4.83;;
6757;SDS011;3416;53.074;8.822;2023-05-21T06:59:46;6.67;;;5.27;;
6757;SDS011;3416;53.074;8.822;2023-05-21T07:02:14;5.83;;;4.70;;
6757;SDS011;3416;53.074;8.822;2023-05-21T07:04:41;9.17;;;5.57;;
6757;SDS011;3416;53.074;8.822;2023-05-21T07:07:08;6.67;;;5.97;;
6757;SDS011;3416;53.074;8.822;2023-05-21T07:09:35;11.73;;;6.33;;
6757;SDS011;3416;53.074;8.822;2023-05-21T07:12:02;7.37;;;6.33;;
6757;SDS011;3416;53.074;8.822;2023-05-21T07:14:29;7.27;;;6.27;;
6757;SDS011;3416;53.074;8.822;2023-05-21T07:16:55;7.07;;;6.30;;
6757;SDS011;3416;53.074;8.822;2023-05-21T07:19:24;14.97;;;7.43;;
6757;SDS011;3416;53.074;8.822;2023-05-21T07:21:51;7.40;;;6.70;;
6757;SDS011;3416;53.074;8.822;2023-05-21T07:24:17;9.23;;;8.00;;
6757;SDS011;3416;53.074;8.822;2023-05-21T07:26:46;9.27;;;7.40;;
6757;SDS011;3416;53.074;8.822;2023-05-21T07:29:13;12.03;;;8.13;;
6757;SDS011;3416;53.074;8.822;2023-05-21T07:31:40;9.20;;;6.77;;
6757;SDS011;3416;53.074;8.822;2023-05-21T07:34:07;15.17;;;7.67;;
6757;SDS011;3416;53.074;8.822;2023-05-21T07:36:35;9.50;;;6.97;;
6757;SDS011;3416;53.074;8.822;2023-05-21T07:39:02;9.77;;;8.73;;
6757;SDS011;3416;53.074;8.822;2023-05-21T07:41:29;12.00;;;8.57;;
6757;SDS011;3416;53.074;8.822;2023-05-21T07:43:56;12.30;;;8.83;;
6757;SDS011;3416;53.074;8.822;2023-05-21T07:46:25;13.10;;;8.67;;
6757;SDS011;3416;53.074;8.822;2023-05-21T07:48:52;10.80;;;8.30;;
6757;SDS011;3416;53.074;8.822;2023-05-21T07:51:19;13.73;;;9.17;;
6757;SDS011;3416;53.074;8.822;2023-05-21T07:53:49;13.10;;;9.40;;
6757;SDS011;3416;53.074;8.822;2023-05-21T07:56:15;11.13;;;9.93;;
6757;SDS011;3416;53.074;8.822;2023-05-21T07:58:42;10.03;;;8.90;;
6757;SDS011;3416;53.074;8.822;2023-05-21T08:01:11;13.00;;;9.47;;
6757;SDS011;3416;53.074;8.822;2023-05-21T08:03:38;13.70;;;8.93;;
6757;SDS011;3416;53.074;8.822;2023-05-21T08:06:05;14.40;;;9.50;;
6757;SDS011;3416;53.074;8.822;2023-05-21T08:08:32;10.60;;;9.50;;
6757;SDS011;3416;53.074;8.822;2023-05-21T08:11:00;10.87;;;9.50;;
6757;SDS011;3416;53.074;8.822;2023-05-21T08:13:27;9.30;;;8.40;;
6757;SDS011;3416;53.074;8.822;2023-05-21T08:15:54;11.50;;;9.90;;
6757;SDS011;3416;53.074;8.822;2023-05-21T08:18:21;13.00;;;11.10;;
6757;SDS011;3416;53.074;8.822;2023-05-21T08:20:49;13.77;;;9.13;;
6757;SDS011;3416;53.074;8.822;2023-05-21T08:23:16;11.60;;;9.80;;
6757;SDS011;3416;53.074;8.822;2023-05-21T08:25:43;11.53;;;9.20;;
6757;SDS011;3416;53.074;8.822;2023-05-21T08:28:11;12.07;;;9.83;;
6757;SDS011;3416;53.074;8.822;2023-05-21T08:30:38;10.33;;;9.13;;
6757;SDS011;3416;53.074;8.822;2023-05-21T08:33:05;11.77;;;8.80;;
6757;SDS011;3416;53.074;8.822;2023-05-21T08:35:32;13.27;;;9.10;;
6757;SDS011;3416;53.074;8.822;2023-05-21T08:37:59;9.40;;;8.47;;
6757;SDS011;3416;53.074;8.822;2023-05-21T08:40:26;11.73;;;10.53;;
6757;SDS011;3416;53.074;8.822;2023-05-21T08:42:53;11.70;;;10.33;;
6757;SDS011;3416;53.074;8.822;2023-05-21T08:45:21;12.17;;;10.10;;
6757;SDS011;3416;53.074;8.822;2023-05-21T08:47:52;12.70;;;10.90;;
6757;SDS011;3416;53.074;8.822;2023-05-21T08:50:21;13.60;;;10.40;;
6757;SDS011;3416;53.074;8.822;2023-05-21T08:52:51;10.87;;;9.77;;
6757;SDS011;3416;53.074;8.822;2023-05-21T08:55:20;11.97;;;10.00;;
6757;SDS011;3416;53.074;8.822;2023-05-21T08:57:47;11.70;;;10.00;;
6757;SDS011;3416;53.074;8.822;2023-05-21T09:00:15;15.03;;;11.30;;
6757;SDS011;3416;53.074;8.822;2023-05-21T09:02:46;12.97;;;10.60;;
6757;SDS011;3416;53.074;8.822;2023-05-21T09:05:13;11.73;;;10.53;;
6757;SDS011;3416;53.074;8.822;2023-05-21T09:07:42;12.60;;;11.10;;
6757;SDS011;3416;53.074;8.822;2023-05-21T09:10:13;14.90;;;10.90;;
6757;SDS011;3416;53.074;8.822;2023-05-21T09:12:43;11.30;;;8.93;;
6757;SDS011;3416;53.074;8.822;2023-05-21T09:15:13;12.40;;;9.63;;
6757;SDS011;3416;53.074;8.822;2023-05-21T09:17:40;13.43;;;11.70;;
6757;SDS011;3416;53.074;8.822;2023-05-21T09:20:09;14.53;;;10.83;;
6757;SDS011;3416;53.074;8.822;2023-05-21T09:22:39;16.00;;;11.13;;
6757;SDS011;3416;53.074;8.822;2023-05-21T09:25:07;11.97;;;10.77;;
6757;SDS011;3416;53.074;8.822;2023-05-21T09:27:35;15.43;;;11.30;;
6757;SDS011;3416;53.074;8.822;2023-05-21T09:30:03;13.13;;;11.20;;
6757;SDS011;3416;53.074;8.822;2023-05-21T09:32:31;12.80;;;11.00;;
6757;SDS011;3416;53.074;8.822;2023-05-21T09:35:04;17.40;;;11.60;;
6757;SDS011;3416;53.074;8.822;2023-05-21T09:37:37;14.00;;;11.27;;
6757;SDS011;3416;53.074;8.822;2023-05-21T09:40:13;15.97;;;12.33;;
6757;SDS011;3416;53.074;8.822;2023-05-21T09:42:42;14.40;;;11.27;;
6757;SDS011;3416;53.074;8.822;2023-05-21T09:45:11;10.80;;;9.50;;
6757;SDS011;3416;53.074;8.822;2023-05-21T09:47:44;11.53;;;9.77;;
6757;SDS011;3416;53.074;8.822;2023-05-21T09:50:13;15.03;;;11.83;;
6757;SDS011;3416;53.074;8.822;2023-05-21T09:52:45;13.90;;;11.37;;
6757;SDS011;3416;53.074;8.822;2023-05-21T09:55:15;12.30;;;11.10;;
6757;SDS011;3416;53.074;8.822;2023-05-21T09:57:42;13.83;;;11.40;;
6757;SDS011;3416;53.074;8.822;2023-05-21T10:00:16;15.27;;;12.37;;
6757;SDS011;3416;53.074;8.822;2023-05-21T10:02:44;11.63;;;10.20;;
6757;SDS011;3416;53.074;8.822;2023-05-21T10:05:12;13.70;;;11.57;;
6757;SDS011;3416;53.074;8.822;2023-05-21T10:07:40;13.67;;;11.50;;
6757;SDS011;3416;53.074;8.822;2023-05-21T10:10:11;18.47;;;12.97;;
6757;SDS011;3416;53.074;8.822;2023-05-21T10:12:40;14.10;;;11.80;;
6757;SDS011;3416;53.074;8.822;2023-05-21T10:15:12;13.27;;;11.90;;
6757;SDS011;3416;53.074;8.822;2023-05-21T10:17:40;13.33;;;12.00;;
6757;SDS011;3416;53.074;8.822;2023-05-21T10:20:09;16.03;;;12.23;;
6757;SDS011;3416;53.074;8.822;2023-05-21T10:22:37;15.90;;;11.93;;
6757;SDS011;3416;53.074;8.822;2023-05-21T10:25:05;15.93;;;13.07;;
6757;SDS011;3416;53.074;8.822;2023-05-21T10:27:35;13.83;;;12.43;;
6757;SDS011;3416;53.074;8.822;2023-05-21T10:30:03;13.73;;;12.33;;
6757;SDS011;3416;53.074;8.822;2023-05-21T10:32:31;12.17;;;10.60;;
6757;SDS011;3416;53.074;8.822;2023-05-21T10:34:58;14.23;;;12.80;;
6757;SDS011;3416;53.074;8.822;2023-05-21T10:37:32;13.77;;;12.43;;
6757;SDS011;3416;53.074;8.822;2023-05-21T10:39:59;14.77;;;13.33;;
6757;SDS011;3416;53.074;8.822;2023-05-21T10:42:43;13.30;;;12.00;;
6757;SDS011;3416;53.074;8.822;2023-05-21T10:45:30;14.83;;;12.40;;
6757;SDS011;3416;53.074;8.822;2023-05-21T10:48:14;14.37;;;12.87;;
6757;SDS011;3416;53.074;8.822;2023-05-21T10:51:00;15.07;;;13.17;;
6757;SDS011;3416;53.074;8.822;2023-05-21T10:54:02;14.87;;;12.77;;
6757;SDS011;3416;53.074;8.822;2023-05-21T10:56:40;17.77;;;14.83;;
6757;SDS011;3416;53.074;8.822;2023-05-21T10:59:15;14.37;;;12.40;;
6757;SDS011;3416;53.074;8.822;2023-05-21T11:01:48;17.20;;;13.70;;
6757;SDS011;3416;53.074;8.822;2023-05-21T11:04:20;14.87;;;13.27;;
6757;SDS011;3416;53.074;8.822;2023-05-21T11:06:47;17.03;;;12.97;;
6757;SDS011;3416;53.074;8.822;2023-05-21T11:09:14;15.93;;;14.33;;
6757;SDS011;3416;53.074;8.822;2023-05-21T11:11:42;18.33;;;15.70;;
6757;SDS011;3416;53.074;8.822;2023-05-21T11:17:03;17.93;;;13.97;;
6757;SDS011;3416;53.074;8.822;2023-05-21T11:19:36;15.40;;;13.77;;
6757;SDS011;3416;53.074;8.822;2023-05-21T11:22:05;16.57;;;13.13;;
6757;SDS011;3416;53.074;8.822;2023-05-21T11:24:35;15.57;;;13.93;;
6757;SDS011;3416;53.074;8.822;2023-05-21T11:27:06;21.73;;;14.50;;
6757;SDS011;3416;53.074;8.822;2023-05-21T11:29:39;13.80;;;12.33;;
6757;SDS011;3416;53.074;8.822;2023-05-21T11:32:08;15.23;;;13.60;;
6757;SDS011;3416;53.074;8.822;2023-05-21T11:34:38;15.20;;;12.37;;
6757;SDS011;3416;53.074;8.822;2023-05-21T11:37:21;17.40;;;14.43;;
6757;SDS011;3416;53.074;8.822;2023-05-21T11:39:51;15.90;;;12.10;;
6757;SDS011;3416;53.074;8.822;2023-05-21T11:42:28;14.10;;;11.20;;
6757;SDS011;3416;53.074;8.822;2023-05-21T11:44:57;13.67;;;12.17;;
6757;SDS011;3416;53.074;8.822;2023-05-21T11:47:27;14.03;;;12.73;;
6757;SDS011;3416;53.074;8.822;2023-05-21T11:49:57;14.53;;;13.03;;
6757;SDS011;3416;53.074;8.822;2023-05-21T11:52:24;14.37;;;12.83;;
6757;SDS011;3416;53.074;8.822;2023-05-21T11:54:53;14.30;;;12.80;;
6757;SDS011;3416;53.074;8.822;2023-05-21T11:57:25;16.87;;;13.33;;
6757;SDS011;3416;53.074;8.822;2023-05-21T11:59:54;13.97;;;12.57;;
6757;SDS011;3416;53.074;8.822;2023-05-21T12:02:24;13.20;;;11.67;;
6757;SDS011;3416;53.074;8.822;2023-05-21T12:04:53;14.63;;;13.10;;
6757;SDS011;3416;53.074;8.822;2023-05-21T12:07:24;13.90;;;12.03;;
6757;SDS011;3416;53.074;8.822;2023-05-21T12:09:52;14.87;;;11.70;;
6757;SDS011;3416;53.074;8.822;2023-05-21T12:12:22;14.60;;;12.70;;
6757;SDS011;3416;53.074;8.822;2023-05-21T12:14:51;14.33;;;12.83;;
6757;SDS011;3416;53.074;8.822;2023-05-21T12:17:19;13.40;;;12.00;;
6757;SDS011;3416;53.074;8.822;2023-05-21T12:19:49;13.43;;;11.90;;
6757;SDS011;3416;53.074;8.822;2023-05-21T12:22:17;13.53;;;12.13;;
6757;SDS011;3416;53.074;8.822;2023-05-21T12:24:44;14.50;;;12.97;;
6757;SDS011;3416;53.074;8.822;2023-05-21T12:27:13;15.37;;;13.77;;
6757;SDS011;3416;53.074;8.822;2023-05-21T12:29:41;13.10;;;11.77;;
6757;SDS011;3416;53.074;8.822;2023-05-21T12:32:10;13.53;;;12.20;;
6757;SDS011;3416;53.074;8.822;2023-05-21T12:34:38;14.70;;;13.17;;
6757;SDS011;3416;53.074;8.822;2023-05-21T12:37:08;14.03;;;12.63;;
6757;SDS011;3416;53.074;8.822;2023-05-21T12:39:36;14.13;;;12.73;;
6757;SDS011;3416;53.074;8.822;2023-05-21T12:42:04;13.43;;;12.23;;
6757;SDS011;3416;53.074;8.822;2023-05-21T12:44:32;12.60;;;11.30;;
6757;SDS011;3416;53.074;8.822;2023-05-21T12:46:59;13.93;;;12.47;;
6757;SDS011;3416;53.074;8.822;2023-05-21T12:49:31;18.03;;;11.83;;
6757;SDS011;3416;53.074;8.822;2023-05-21T12:52:00;16.33;;;13.33;;
6757;SDS011;3416;53.074;8.822;2023-05-21T12:54:30;14.20;;;12.77;;
6757;SDS011;3416;53.074;8.822;2023-05-21T12:57:04;13.37;;;12.10;;
6757;SDS011;3416;53.074;8.822;2023-05-21T12:59:38;13.50;;;12.30;;
6757;SDS011;3416;53.074;8.822;2023-05-21T13:02:13;15.40;;;12.10;;
6757;SDS011;3416;53.074;8.822;2023-05-21T13:04:48;14.97;;;13.37;;
6757;SDS011;3416;53.074;8.822;2023-05-21T13:07:19;14.47;;;12.33;;
6757;SDS011;3416;53.074;8.822;2023-05-21T13:09:47;13.83;;;12.63;;
6757;SDS011;3416;53.074;8.822;2023-05-21T13:12:17;13.43;;;12.03;;
6757;SDS011;3416;53.074;8.822;2023-05-21T13:14:44;16.13;;;13.20;;
6757;SDS011;3416;53.074;8.822;2023-05-21T13:17:12;13.67;;;12.17;;
6757;SDS011;3416;53.074;8.822;2023-05-21T13:19:39;15.80;;;12.53;;
6757;SDS011;3416;53.074;8.822;2023-05-21T13:22:06;14.60;;;13.17;;
6757;SDS011;3416;53.074;8.822;2023-05-21T13:24:34;14.07;;;12.67;;
6757;SDS011;3416;53.074;8.822;2023-05-21T13:27:03;13.47;;;12.17;;
6757;SDS011;3416;53.074;8.822;2023-05-21T13:29:30;13.70;;;12.40;;
6757;SDS011;3416;53.074;8.822;2023-05-21T13:31:56;14.20;;;12.53;;
6757;SDS011;3416;53.074;8.822;2023-05-21T13:34:23;15.03;;;12.13;;
6757;SDS011;3416;53.074;8.822;2023-05-21T13:36:50;13.03;;;11.83;;
6757;SDS011;3416;53.074;8.822;2023-05-21T13:39:18;13.93;;;12.63;;
6757;SDS011;3416;53.074;8.822;2023-05-21T13:41:50;15.47;;;13.90;;
6757;SDS011;3416;53.074;8.822;2023-05-21T13:44:19;12.73;;;11.60;;
6757;SDS011;3416;53.074;8.822;2023-05-21T13:46:46;15.77;;;12.83;;
6757;SDS011;3416;53.074;8.822;2023-05-21T13:49:13;13.30;;;11.97;;
6757;SDS011;3416;53.074;8.822;2023-05-21T13:51:40;14.37;;;12.97;;
6757;SDS011;3416;53.074;8.822;2023-05-21T13:54:07;13.80;;;12.17;;
6757;SDS011;3416;53.074;8.822;2023-05-21T13:56:34;13.53;;;12.23;;
6757;SDS011;3416;53.074;8.822;2023-05-21T13:59:01;13.93;;;12.47;;
6757;SDS011;3416;53.074;8.822;2023-05-21T14:01:29;14.13;;;12.80;;
6757;SDS011;3416;53.074;8.822;2023-05-21T14:03:56;12.80;;;11.53;;
6757;SDS011;3416;53.074;8.822;2023-05-21T14:06:28;14.20;;;12.87;;
6757;SDS011;3416;53.074;8.822;2023-05-21T14:08:55;15.17;;;13.67;;
6757;SDS011;3416;53.074;8.822;2023-05-21T14:11:22;14.47;;;13.00;;
6757;SDS011;3416;53.074;8.822;2023-05-21T14:13:50;13.70;;;12.40;;
6757;SDS011;3416;53.074;8.822;2023-05-21T14:16:17;13.03;;;11.67;;
6757;SDS011;3416;53.074;8.822;2023-05-21T14:18:45;14.20;;;11.73;;
6757;SDS011;3416;53.074;8.822;2023-05-21T14:21:12;12.97;;;11.77;;
6757;SDS011;3416;53.074;8.822;2023-05-21T14:23:39;14.23;;;12.83;;
6757;SDS011;3416;53.074;8.822;2023-05-21T14:26:06;12.80;;;11.60;;
6757;SDS011;3416;53.074;8.822;2023-05-21T14:28:33;13.17;;;11.97;;
6757;SDS011;3416;53.074;8.822;2023-05-21T14:30:59;12.43;;;11.33;;
6757;SDS011;3416;53.074;8.822;2023-05-21T14:33:26;12.47;;;11.20;;
6757;SDS011;3416;53.074;8.822;2023-05-21T14:35:55;13.13;;;11.83;;
6757;SDS011;3416;53.074;8.822;2023-05-21T14:38:22;12.93;;;11.67;;
6757;SDS011;3416;53.074;8.822;2023-05-21T14:40:49;13.47;;;12.27;;
6757;SDS011;3416;53.074;8.822;2023-05-21T14:43:16;12.90;;;11.70;;
6757;SDS011;3416;53.074;8.822;2023-05-21T14:45:43;14.67;;;11.83;;
6757;SDS011;3416;53.074;8.822;2023-05-21T14:48:10;15.30;;;11.67;;
6757;SDS011;3416;53.074;8.822;2023-05-21T14:50:38;12.17;;;10.97;;
6757;SDS011;3416;53.074;8.822;2023-05-21T14:53:08;12.73;;;11.53;;
6757;SDS011;3416;53.074;8.822;2023-05-21T14:55:36;14.17;;;11.93;;
6757;SDS011;3416;53.074;8.822;2023-05-21T14:58:03;13.97;;;11.93;;
6757;SDS011;3416;53.074;8.822;2023-05-21T15:00:31;13.10;;;11.90;;
6757;SDS011;3416;53.074;8.822;2023-05-21T15:02:58;12.57;;;11.50;;
6757;SDS011;3416;53.074;8.822;2023-05-21T15:05:26;16.43;;;13.20;;
6757;SDS011;3416;53.074;8.822;2023-05-21T15:07:53;12.70;;;11.50;;
6757;SDS011;3416;53.074;8.822;2023-05-21T15:10:22;12.73;;;11.43;;
6757;SDS011;3416;53.074;8.822;2023-05-21T15:12:50;13.03;;;11.83;;
6757;SDS011;3416;53.074;8.822;2023-05-21T15:15:17;12.90;;;11.50;;
6757;SDS011;3416;53.074;8.822;2023-05-21T15:17:45;13.70;;;12.43;;